Time;durP1;ratioP1;P1;durP2;ratioP2;P2;SDS_P1;SDS_P2;PMS_P1;PMS_P2;Temp;Humidity;BMP_temperature;BMP_pressure;BME280_temperature;BME280_humidity;BME280_pressure;Samples;Min_cycle;Max_cycle;Signal;HPM_P1;HPM_P2
2023/10/11 00:01:18;;;;;;;;;;;;;;;;;;5034559;28;19932;-61
2023/10/11 00:03:53;;;;;;;;;;;;;;;;;;5033094;28;19921;-61
2023/10/11 00:06:19;;;;;;;;;;;;;;;;;;5033073;28;19932;-61
2023/10/11 00:08:45;;;;;;;;;;;;;;;;;;5016363;28;19925;-61
2023/10/11 00:11:11;;;;;;;;;;;;;;;;;;5034480;28;19971;-61
2023/10/11 00:13:37;;;;;;;;;;;;;;;;;;5034125;28;19928;-61
2023/10/11 00:16:09;;;;;;;;;;;;;;;;;;5034197;28;19925;-61
2023/10/11 00:18:35;;;;;;;;;;;;;;;;;;5049252;28;19952;-61
2023/10/11 00:21:09;;;;;;;;;;;;;;;;;;5033938;28;19921;-61
2023/10/11 00:23:36;;;;;;;;;;;;;;;;;;5034230;28;19961;-61
2023/10/11 00:26:02;;;;;;;;;;;;;;;;;;5034067;28;19925;-61
2023/10/11 00:28:31;;;;;;;;;;;;;;;;;;5033828;28;20043;-61
2023/10/11 00:30:59;;;;;;;;;;;;;;;;;;5016084;28;20429;-62
2023/10/11 00:33:25;;;;;;;;;;;;;;;;;;5033666;28;20044;-61
2023/10/11 00:35:51;;;;;;;;;;;;;;;;;;5016027;28;20369;-61
2023/10/11 00:38:18;;;;;;;;;;;;;;;;;;5015576;28;19933;-61
2023/10/11 00:40:44;;;;;;;;;;;;;;;;;;5033800;28;19952;-61
2023/10/11 00:43:10;;;;;;;;;;;;;;;;;;5032641;28;19925;-61
2023/10/11 00:45:36;;;;;;;;;;;;;;;;;;5049093;28;19928;-61
2023/10/11 00:48:10;;;;;;;;;;;;;;;;;;5033541;28;20295;-61
2023/10/11 00:50:36;;;;;;;;;;;;;;;;;;5033610;28;19925;-61
2023/10/11 00:53:02;;;;;;;;;;;;;;;;;;5015514;28;19932;-61
2023/10/11 00:55:29;;;;;;;;;;;;;;;;;;5033443;28;20262;-61
2023/10/11 00:57:55;;;;;;;;;;;;;;;;;;5015560;28;19925;-62
2023/10/11 01:00:21;;;;;;;;;;;;;;;;;;5048053;28;20453;-62
2023/10/11 01:02:47;;;;;;;;;;;;;;;;;;5033405;28;20054;-62
2023/10/11 01:05:14;;;;;;;;;;;;;;;;;;5033301;28;20016;-62
2023/10/11 01:07:40;;;;;;;;;;;;;;;;;;5048456;28;19920;-62
2023/10/11 01:10:06;;;;;;;;;;;;;;;;;;5031739;28;20291;-62
2023/10/11 01:12:32;;;;;;;;;;;;;;;;;;5033311;28;19921;-62
2023/10/11 01:14:58;;;;;;;;;;;;;;;;;;5033163;28;20010;-62
2023/10/11 01:17:25;;;;;;;;;;;;;;;;;;5048244;28;20014;-62
2023/10/11 01:19:52;;;;;;;;;;;;;;;;;;5033083;28;20052;-62
2023/10/11 01:22:17;;;;;;;;;;;;;;;;;;5033138;28;19991;-61
2023/10/11 01:24:47;;;;;;;;;;;;;;;;;;5014972;28;20374;-62
2023/10/11 01:27:13;;;;;;;;;;;;;;;;;;5032993;28;19971;-62
2023/10/11 01:29:39;;;;;;;;;;;;;;;;;;5032566;28;19925;-62
2023/10/11 01:32:06;;;;;;;;;;;;;;;;;;5032785;28;20003;-60
2023/10/11 01:34:32;;;;;;;;;;;;;;;;;;5031942;28;19931;-60
2023/10/11 01:36:58;;;;;;;;;;;;;;;;;;5032040;28;19980;-61
2023/10/11 01:39:24;;;;;;;;;;;;;;;;;;5031473;28;20722;-62
2023/10/11 01:41:54;;;;;;;;;;;;;;;;;;5031651;28;20032;-63
2023/10/11 01:44:22;;;;;;;;;;;;;;;;;;5031961;28;19921;-61
2023/10/11 01:46:48;;;;;;;;;;;;;;;;;;5014167;28;19921;-61
2023/10/11 01:49:14;;;;;;;;;;;;;;;;;;5014645;28;19925;-61
2023/10/11 01:51:46;;;;;;;;;;;;;;;;;;5032042;28;20359;-61
2023/10/11 01:54:12;;;;;;;;;;;;;;;;;;5012035;28;19929;-61
2023/10/11 01:56:38;;;;;;;;;;;;;;;;;;5027201;28;19921;-61
2023/10/11 01:59:04;;;;;;;;;;;;;;;;;;5011658;28;20381;-61
2023/10/11 02:01:38;;;;;;;;;;;;;;;;;;5011616;28;19921;-61
2023/10/11 02:04:04;;;;;;;;;;;;;;;;;;5011610;28;19922;-61
2023/10/11 02:06:31;;;;;;;;;;;;;;;;;;4993674;28;19928;-61
2023/10/11 02:08:57;;;;;;;;;;;;;;;;;;5011438;28;20298;-61
2023/10/11 02:11:25;;;;;;;;;;;;;;;;;;5010773;28;19921;-61
2023/10/11 02:13:51;;;;;;;;;;;;;;;;;;5030442;28;20426;-61
2023/10/11 02:16:17;;;;;;;;;;;;;;;;;;5046650;28;19996;-60
2023/10/11 02:18:43;;;;;;;;;;;;;;;;;;5031957;28;20044;-61
2023/10/11 02:21:09;;;;;;;;;;;;;;;;;;5032049;28;19925;-60
2023/10/11 02:23:39;;;;;;;;;;;;;;;;;;5032014;28;19928;-61
2023/10/11 02:26:09;;;;;;;;;;;;;;;;;;5014105;28;19925;-61
2023/10/11 02:28:38;;;;;;;;;;;;;;;;;;5031981;28;19927;-61
2023/10/11 02:31:05;;;;;;;;;;;;;;;;;;5031879;28;19925;-61
2023/10/11 02:33:32;;;;;;;;;;;;;;;;;;5031785;28;19922;-61
2023/10/11 02:36:08;;;;;;;;;;;;;;;;;;5031994;28;19921;-61
2023/10/11 02:38:38;;;;;;;;;;;;;;;;;;5031786;28;19925;-60
2023/10/11 02:41:04;;;;;;;;;;;;;;;;;;5031955;28;19931;-60
2023/10/11 02:43:33;;;;;;;;;;;;;;;;;;5031907;28;20275;-61
2023/10/11 02:46:00;;;;;;;;;;;;;;;;;;5013854;28;20401;-61
2023/10/11 02:48:29;;;;;;;;;;;;;;;;;;5031710;28;19921;-61
2023/10/11 02:50:57;;;;;;;;;;;;;;;;;;5031540;28;20464;-61
2023/10/11 02:53:23;;;;;;;;;;;;;;;;;;5031426;28;19928;-60
2023/10/11 02:55:57;;;;;;;;;;;;;;;;;;5031728;28;19925;-60
2023/10/11 02:58:24;;;;;;;;;;;;;;;;;;5013911;28;19928;-60
2023/10/11 03:00:56;;;;;;;;;;;;;;;;;;5030179;28;19935;-60
2023/10/11 03:03:26;;;;;;;;;;;;;;;;;;5031460;28;19921;-61
2023/10/11 03:05:52;;;;;;;;;;;;;;;;;;5031684;28;20294;-61
2023/10/11 03:08:19;;;;;;;;;;;;;;;;;;5031676;28;19928;-61
2023/10/11 03:10:53;;;;;;;;;;;;;;;;;;5046973;28;19928;-61
2023/10/11 03:13:25;;;;;;;;;;;;;;;;;;5031663;28;19956;-61
2023/10/11 03:15:57;;;;;;;;;;;;;;;;;;5031540;28;19921;-60
2023/10/11 03:18:25;;;;;;;;;;;;;;;;;;5013488;28;19975;-61
2023/10/11 03:20:51;;;;;;;;;;;;;;;;;;5031529;28;19932;-61
2023/10/11 03:23:21;;;;;;;;;;;;;;;;;;5032794;28;19929;-60
2023/10/11 03:25:49;;;;;;;;;;;;;;;;;;5035282;28;19964;-60
2023/10/11 03:28:15;;;;;;;;;;;;;;;;;;5034874;28;20298;-61
2023/10/11 03:30:42;;;;;;;;;;;;;;;;;;5035229;28;19925;-61
2023/10/11 03:33:08;;;;;;;;;;;;;;;;;;5017016;28;20402;-61
2023/10/11 03:35:38;;;;;;;;;;;;;;;;;;5035127;28;19922;-61
2023/10/11 03:38:06;;;;;;;;;;;;;;;;;;5034776;28;19928;-61
2023/10/11 03:40:34;;;;;;;;;;;;;;;;;;5034713;28;19929;-61
2023/10/11 03:43:01;;;;;;;;;;;;;;;;;;5033325;28;19921;-61
2023/10/11 03:45:27;;;;;;;;;;;;;;;;;;5049981;28;19934;-61
2023/10/11 03:47:53;;;;;;;;;;;;;;;;;;5034863;28;19975;-60
2023/10/11 03:50:31;;;;;;;;;;;;;;;;;;5034755;28;19925;-61
2023/10/11 03:53:06;;;;;;;;;;;;;;;;;;5034487;28;19922;-61
2023/10/11 03:55:32;;;;;;;;;;;;;;;;;;5033575;28;20673;-61
2023/10/11 03:57:58;;;;;;;;;;;;;;;;;;5034446;28;19929;-61
2023/10/11 04:00:29;;;;;;;;;;;;;;;;;;5016753;28;19921;-61
2023/10/11 04:03:02;;;;;;;;;;;;;;;;;;5033721;28;20016;-61
2023/10/11 04:05:33;;;;;;;;;;;;;;;;;;5033559;28;19923;-61
2023/10/11 04:08:04;;;;;;;;;;;;;;;;;;5034022;28;19925;-61
2023/10/11 04:10:42;;;;;;;;;;;;;;;;;;5033464;28;20063;-60
2023/10/11 04:13:15;;;;;;;;;;;;;;;;;;5033284;28;19925;-61
2023/10/11 04:15:40;;;;;;;;;;;;;;;;;;5033155;28;19921;-61
2023/10/11 04:18:15;;;;;;;;;;;;;;;;;;5032896;28;19982;-61
2023/10/11 04:20:50;;;;;;;;;;;;;;;;;;5033026;28;19995;-61
2023/10/11 04:23:16;;;;;;;;;;;;;;;;;;5033030;28;20051;-61
2023/10/11 04:25:44;;;;;;;;;;;;;;;;;;5015143;28;20016;-61
2023/10/11 04:28:12;;;;;;;;;;;;;;;;;;5033089;28;19921;-61
2023/10/11 04:30:43;;;;;;;;;;;;;;;;;;5032022;28;19920;-60
2023/10/11 04:33:13;;;;;;;;;;;;;;;;;;5033942;28;19925;-61
2023/10/11 04:35:42;;;;;;;;;;;;;;;;;;5033107;28;19948;-62
2023/10/11 04:38:10;;;;;;;;;;;;;;;;;;5033813;28;19929;-62
2023/10/11 04:40:51;;;;;;;;;;;;;;;;;;5033548;28;19933;-60
2023/10/11 04:43:29;;;;;;;;;;;;;;;;;;5033646;28;19936;-61
2023/10/11 04:45:55;;;;;;;;;;;;;;;;;;5015721;28;20397;-60
2023/10/11 04:48:32;;;;;;;;;;;;;;;;;;5032581;28;20240;-61
2023/10/11 04:51:07;;;;;;;;;;;;;;;;;;5033443;28;20705;-61
2023/10/11 04:53:34;;;;;;;;;;;;;;;;;;5033535;28;19925;-61
2023/10/11 04:56:01;;;;;;;;;;;;;;;;;;5015377;28;19921;-61
2023/10/11 04:58:42;;;;;;;;;;;;;;;;;;5033435;28;20267;-61
2023/10/11 05:01:09;;;;;;;;;;;;;;;;;;5033397;28;19928;-61
2023/10/11 05:03:39;;;;;;;;;;;;;;;;;;5015410;28;19935;-62
2023/10/11 05:06:13;;;;;;;;;;;;;;;;;;5033194;28;19928;-61
2023/10/11 05:08:51;;;;;;;;;;;;;;;;;;5033365;28;19928;-61
2023/10/11 05:12:07;;;;;;;;;;;;;;;;;;5033155;28;20383;-61
2023/10/11 05:16:51;;;;;;;;;;;;;;;;;;5048482;28;19925;-60
2023/10/11 05:19:20;;;;;;;;;;;;;;;;;;5032510;28;20394;-61
2023/10/11 05:21:52;;;;;;;;;;;;;;;;;;5032086;28;19936;-62
2023/10/11 05:30:07;;;;;;;;;;;;;;;;;;5010429;28;20382;-61
2023/10/11 05:32:33;;;;;;;;;;;;;;;;;;5032482;28;20427;-61
2023/10/11 05:51:19;;;;;;;;;;;;;;;;;;5032395;28;19925;-60
2023/10/11 05:53:46;;;;;;;;;;;;;;;;;;5032291;28;19969;-61
2023/10/11 05:56:20;;;;;;;;;;;;;;;;;;5032346;28;20007;-61
2023/10/11 05:58:46;;;;;;;;;;;;;;;;;;5014167;28;20406;-61
2023/10/11 06:01:13;;;;;;;;;;;;;;;;;;5032117;28;19928;-61
2023/10/11 06:03:39;;;;;;;;;;;;;;;;;;5031385;28;19983;-61
2023/10/11 06:06:23;;;;;;;;;;;;;;;;;;5031684;28;19929;-61
2023/10/11 06:08:50;;;;;;;;;;;;;;;;;;5032263;28;19991;-62
2023/10/11 06:11:16;;;;;;;;;;;;;;;;;;5032270;28;19921;-61
2023/10/11 06:13:43;;;;;;;;;;;;;;;;;;5031975;28;19932;-61
2023/10/11 06:16:13;;;;;;;;;;;;;;;;;;5031970;28;19929;-61
2023/10/11 06:18:39;;;;;;;;;;;;;;;;;;5012193;28;20309;-61
2023/10/11 06:21:05;;;;;;;;;;;;;;;;;;5012136;28;20039;-61
2023/10/11 06:23:31;;;;;;;;;;;;;;;;;;5012091;28;20413;-61
2023/10/11 06:25:59;;;;;;;;;;;;;;;;;;5012004;28;20012;-62
2023/10/11 06:28:31;;;;;;;;;;;;;;;;;;5012228;28;19932;-61
2023/10/11 06:30:57;;;;;;;;;;;;;;;;;;4994448;28;19979;-61
2023/10/11 06:33:23;;;;;;;;;;;;;;;;;;5012245;28;19921;-61
2023/10/11 06:35:49;;;;;;;;;;;;;;;;;;5012031;28;19932;-61
2023/10/11 06:38:15;;;;;;;;;;;;;;;;;;5011956;28;19925;-61
2023/10/11 06:40:48;;;;;;;;;;;;;;;;;;5010543;28;19941;-61
2023/10/11 06:43:14;;;;;;;;;;;;;;;;;;5012029;28;19929;-61
2023/10/11 06:45:41;;;;;;;;;;;;;;;;;;5020819;28;19924;-61
2023/10/11 06:48:07;;;;;;;;;;;;;;;;;;5031628;28;19929;-62
2023/10/11 06:50:35;;;;;;;;;;;;;;;;;;5031165;28;20012;-62
2023/10/11 06:53:03;;;;;;;;;;;;;;;;;;5030832;28;19951;-62
2023/10/11 06:55:29;;;;;;;;;;;;;;;;;;5031299;28;19921;-62
2023/10/11 06:57:55;;;;;;;;;;;;;;;;;;5031876;28;19929;-62
2023/10/11 07:00:21;;;;;;;;;;;;;;;;;;5034579;28;20007;-62
2023/10/11 07:02:47;;;;;;;;;;;;;;;;;;5034562;28;20381;-62
2023/10/11 07:05:17;;;;;;;;;;;;;;;;;;5049501;28;19929;-62
2023/10/11 07:07:47;;;;;;;;;;;;;;;;;;5034465;28;19925;-61
2023/10/11 07:10:29;;;;;;;;;;;;;;;;;;5066303;28;19959;-62
2023/10/11 07:13:03;;;;;;;;;;;;;;;;;;5034256;28;19925;-61
2023/10/11 07:15:31;;;;;;;;;;;;;;;;;;5033625;28;19975;-61
2023/10/11 07:17:57;;;;;;;;;;;;;;;;;;5035316;28;19987;-61
2023/10/11 07:23:07;;;;;;;;;;;;;;;;;;5035388;28;19921;-61
2023/10/11 07:25:36;;;;;;;;;;;;;;;;;;5035066;28;19927;-61
2023/10/11 07:28:03;;;;;;;;;;;;;;;;;;5034870;28;19925;-61
2023/10/11 07:30:37;;;;;;;;;;;;;;;;;;5050299;28;19925;-61
2023/10/11 07:33:04;;;;;;;;;;;;;;;;;;5035089;28;19921;-61
2023/10/11 07:35:30;;;;;;;;;;;;;;;;;;5034892;28;19925;-61
2023/10/11 07:37:56;;;;;;;;;;;;;;;;;;5034801;28;20303;-61
2023/10/11 07:40:33;;;;;;;;;;;;;;;;;;5049878;28;19929;-61
2023/10/11 07:43:00;;;;;;;;;;;;;;;;;;5050130;28;19929;-61
2023/10/11 07:45:26;;;;;;;;;;;;;;;;;;5034781;28;19933;-61
2023/10/11 07:47:52;;;;;;;;;;;;;;;;;;5034943;28;20379;-61
2023/10/11 07:50:22;;;;;;;;;;;;;;;;;;5033322;28;19925;-61
2023/10/11 07:52:48;;;;;;;;;;;;;;;;;;5055304;28;19921;-62
2023/10/11 07:55:14;;;;;;;;;;;;;;;;;;5034513;28;19956;-62
2023/10/11 07:57:44;;;;;;;;;;;;;;;;;;5034201;28;20405;-61
2023/10/11 08:00:16;;;;;;;;;;;;;;;;;;5034571;28;19928;-61
2023/10/11 08:02:43;;;;;;;;;;;;;;;;;;5032986;28;20011;-61
2023/10/11 08:05:14;;;;;;;;;;;;;;;;;;5034537;28;20392;-61
2023/10/11 08:07:40;;;;;;;;;;;;;;;;;;5034430;28;19921;-61
2023/10/11 08:12:51;;;;;;;;;;;;;;;;;;5034231;28;20287;-61
2023/10/11 08:15:21;;;;;;;;;;;;;;;;;;5034257;28;19932;-61
2023/10/11 08:17:47;;;;;;;;;;;;;;;;;;5033848;28;19933;-62
2023/10/11 08:20:15;;;;;;;;;;;;;;;;;;5034308;28;19925;-61
2023/10/11 08:22:41;;;;;;;;;;;;;;;;;;5034087;28;19921;-61
2023/10/11 08:25:12;;;;;;;;;;;;;;;;;;5034004;28;19928;-61
2023/10/11 08:27:38;;;;;;;;;;;;;;;;;;5033843;28;19943;-61
2023/10/11 08:30:17;;;;;;;;;;;;;;;;;;5033834;28;20379;-61
2023/10/11 08:32:43;;;;;;;;;;;;;;;;;;5016053;28;19921;-61
2023/10/11 08:35:09;;;;;;;;;;;;;;;;;;5033856;28;20282;-61
2023/10/11 08:37:37;;;;;;;;;;;;;;;;;;5033633;28;20024;-61
2023/10/11 08:40:19;;;;;;;;;;;;;;;;;;5048868;28;20440;-62
2023/10/11 08:42:45;;;;;;;;;;;;;;;;;;5033621;28;19921;-61
2023/10/11 08:45:14;;;;;;;;;;;;;;;;;;5015751;28;20304;-61
2023/10/11 08:47:40;;;;;;;;;;;;;;;;;;5033387;28;20362;-62
2023/10/11 08:50:08;;;;;;;;;;;;;;;;;;5033613;28;19951;-61
2023/10/11 08:52:34;;;;;;;;;;;;;;;;;;5033267;28;19971;-61
2023/10/11 08:55:00;;;;;;;;;;;;;;;;;;5033484;28;19925;-61
2023/10/11 08:57:31;;;;;;;;;;;;;;;;;;5048515;28;19978;-61
2023/10/11 08:59:57;;;;;;;;;;;;;;;;;;5033537;28;19925;-61
2023/10/11 09:02:23;;;;;;;;;;;;;;;;;;5033371;28;20640;-61
2023/10/11 09:04:49;;;;;;;;;;;;;;;;;;5031811;28;19972;-61
2023/10/11 09:07:16;;;;;;;;;;;;;;;;;;5033104;28;19921;-61
2023/10/11 09:09:45;;;;;;;;;;;;;;;;;;5065140;28;20303;-61
2023/10/11 09:12:23;;;;;;;;;;;;;;;;;;5032820;28;20414;-61
2023/10/11 09:14:49;;;;;;;;;;;;;;;;;;5033352;28;19938;-62
2023/10/11 09:17:18;;;;;;;;;;;;;;;;;;5042878;28;20638;-62
2023/10/11 09:19:44;;;;;;;;;;;;;;;;;;5048169;28;20438;-61
2023/10/11 09:22:18;;;;;;;;;;;;;;;;;;5032464;28;20016;-61
2023/10/11 09:24:44;;;;;;;;;;;;;;;;;;5032711;28;20409;-61
2023/10/11 09:27:18;;;;;;;;;;;;;;;;;;5032962;28;19921;-61
2023/10/11 09:29:44;;;;;;;;;;;;;;;;;;5048008;28;20578;-62
2023/10/11 09:32:13;;;;;;;;;;;;;;;;;;5032808;28;19932;-62
2023/10/11 09:34:41;;;;;;;;;;;;;;;;;;5032571;28;19940;-61
2023/10/11 09:37:07;;;;;;;;;;;;;;;;;;5048178;28;20286;-61
2023/10/11 09:39:33;;;;;;;;;;;;;;;;;;5032314;28;19990;-61
2023/10/11 09:42:02;;;;;;;;;;;;;;;;;;5032579;28;19921;-61
2023/10/11 09:44:28;;;;;;;;;;;;;;;;;;5032523;28;19925;-62
2023/10/11 09:46:54;;;;;;;;;;;;;;;;;;5032446;28;20402;-59
2023/10/11 09:49:25;;;;;;;;;;;;;;;;;;5032488;28;19921;-60
2023/10/11 09:51:51;;;;;;;;;;;;;;;;;;5032374;28;19921;-60
2023/10/11 09:54:17;;;;;;;;;;;;;;;;;;5040999;22;20392;-60
2023/10/11 09:56:48;;;;;;;;;;;;;;;;;;5047879;28;19925;-61
2023/10/11 09:59:19;;;;;;;;;;;;;;;;;;5032557;28;19935;-61
2023/10/11 10:01:45;;;;;;;;;;;;;;;;;;5047666;28;19927;-61
2023/10/11 10:04:13;;;;;;;;;;;;;;;;;;5046580;28;22493;-61
2023/10/11 10:06:39;;;;;;;;;;;;;;;;;;5032329;28;20020;-61
2023/10/11 10:09:23;;;;;;;;;;;;;;;;;;5047308;28;20011;-61
2023/10/11 10:11:51;;;;;;;;;;;;;;;;;;5032404;28;19956;-61
2023/10/11 10:14:17;;;;;;;;;;;;;;;;;;5031947;28;19920;-61
2023/10/11 10:16:43;;;;;;;;;;;;;;;;;;5051346;28;19921;-60
2023/10/11 10:19:08;;;;;;;;;;;;;;;;;;5033708;28;20321;-61
2023/10/11 10:21:34;;;;;;;;;;;;;;;;;;5033886;28;19956;-61
2023/10/11 10:24:00;;;;;;;;;;;;;;;;;;5051908;28;20007;-61
2023/10/11 10:26:26;;;;;;;;;;;;;;;;;;5067213;28;19920;-61
2023/10/11 10:28:57;;;;;;;;;;;;;;;;;;5040629;28;19925;-61
2023/10/11 10:31:24;;;;;;;;;;;;;;;;;;5031903;28;19972;-62
2023/10/11 10:33:51;;;;;;;;;;;;;;;;;;5031159;28;20004;-61
2023/10/11 10:36:17;;;;;;;;;;;;;;;;;;5031837;28;19925;-61
2023/10/11 10:38:43;;;;;;;;;;;;;;;;;;5031859;28;20032;-62
2023/10/11 10:41:09;;;;;;;;;;;;;;;;;;5031907;28;19928;-61
2023/10/11 10:43:35;;;;;;;;;;;;;;;;;;5031612;28;19925;-61
2023/10/11 10:46:03;;;;;;;;;;;;;;;;;;5031837;28;19927;-61
2023/10/11 10:48:39;;;;;;;;;;;;;;;;;;5046920;28;20389;-62
2023/10/11 10:51:05;;;;;;;;;;;;;;;;;;5047034;28;19928;-62
2023/10/11 10:53:31;;;;;;;;;;;;;;;;;;5073200;28;20317;-61
2023/10/11 10:55:58;;;;;;;;;;;;;;;;;;5051478;28;19921;-61
2023/10/11 10:58:24;;;;;;;;;;;;;;;;;;5051371;28;19929;-61
2023/10/11 11:00:49;;;;;;;;;;;;;;;;;;5051550;28;19925;-61
2023/10/11 11:03:15;;;;;;;;;;;;;;;;;;5043854;28;19921;-61
2023/10/11 11:05:42;;;;;;;;;;;;;;;;;;5031373;28;19925;-62
2023/10/11 11:08:15;;;;;;;;;;;;;;;;;;5046776;28;19929;-61
2023/10/11 11:10:54;;;;;;;;;;;;;;;;;;5031214;28;19921;-61
2023/10/11 11:13:20;;;;;;;;;;;;;;;;;;5030785;28;20279;-62
2023/10/11 11:15:46;;;;;;;;;;;;;;;;;;5030577;28;19928;-62
2023/10/11 11:18:12;;;;;;;;;;;;;;;;;;5062539;28;19993;-62
2023/10/11 11:20:40;;;;;;;;;;;;;;;;;;5050420;28;20378;-61
2023/10/11 11:23:06;;;;;;;;;;;;;;;;;;5050421;28;19925;-61
2023/10/11 11:25:34;;;;;;;;;;;;;;;;;;5050136;28;19943;-62
2023/10/11 11:28:00;;;;;;;;;;;;;;;;;;5065650;28;19921;-61
2023/10/11 11:30:33;;;;;;;;;;;;;;;;;;5031991;28;19921;-61
2023/10/11 11:32:59;;;;;;;;;;;;;;;;;;5050175;28;19967;-62
2023/10/11 11:35:29;;;;;;;;;;;;;;;;;;5050088;28;20473;-61
2023/10/11 11:38:01;;;;;;;;;;;;;;;;;;5049905;28;20382;-62
2023/10/11 11:40:27;;;;;;;;;;;;;;;;;;5065849;28;19978;-62
2023/10/11 11:42:53;;;;;;;;;;;;;;;;;;5033149;28;20355;-61
2023/10/11 11:45:28;;;;;;;;;;;;;;;;;;5054093;28;19921;-61
2023/10/11 11:47:56;;;;;;;;;;;;;;;;;;5054734;28;20015;-61
2023/10/11 11:50:22;;;;;;;;;;;;;;;;;;5053163;28;19932;-61
2023/10/11 11:52:48;;;;;;;;;;;;;;;;;;5054755;28;20343;-61
2023/10/11 11:55:16;;;;;;;;;;;;;;;;;;5054289;28;19994;-61
2023/10/11 11:57:42;;;;;;;;;;;;;;;;;;5036444;28;19932;-62
2023/10/11 12:03:06;;;;;;;;;;;;;;;;;;5020246;28;19921;-61
2023/10/11 12:05:41;;;;;;;;;;;;;;;;;;5069691;28;20527;-61
2023/10/11 12:08:08;;;;;;;;;;;;;;;;;;5054350;28;19921;-61
2023/10/11 12:10:34;;;;;;;;;;;;;;;;;;5031267;28;19974;-61
2023/10/11 12:13:06;;;;;;;;;;;;;;;;;;5049542;28;19924;-61
2023/10/11 12:15:32;;;;;;;;;;;;;;;;;;5033950;28;19921;-61
2023/10/11 12:17:58;;;;;;;;;;;;;;;;;;5048352;28;20394;-60
2023/10/11 12:20:33;;;;;;;;;;;;;;;;;;5054010;28;19932;-60
2023/10/11 12:23:07;;;;;;;;;;;;;;;;;;5036073;28;20382;-60
2023/10/11 12:25:33;;;;;;;;;;;;;;;;;;5036320;28;19924;-61
2023/10/11 12:28:02;;;;;;;;;;;;;;;;;;5054027;28;20357;-61
2023/10/11 12:30:28;;;;;;;;;;;;;;;;;;5053953;28;19925;-61
2023/10/11 12:32:54;;;;;;;;;;;;;;;;;;5035775;28;20036;-61
2023/10/11 12:35:23;;;;;;;;;;;;;;;;;;5054052;28;19921;-61
2023/10/11 12:37:49;;;;;;;;;;;;;;;;;;5053579;28;19925;-61
2023/10/11 12:40:22;;;;;;;;;;;;;;;;;;5053670;28;20011;-61
2023/10/11 12:42:48;;;;;;;;;;;;;;;;;;5053003;28;19921;-61
2023/10/11 12:45:16;;;;;;;;;;;;;;;;;;5052672;28;20281;-61
2023/10/11 12:47:42;;;;;;;;;;;;;;;;;;5053231;28;20322;-61
2023/10/11 12:50:08;;;;;;;;;;;;;;;;;;5052431;28;19929;-61
2023/10/11 12:52:37;;;;;;;;;;;;;;;;;;5034322;28;19921;-61
2023/10/11 12:55:06;;;;;;;;;;;;;;;;;;5051747;28;19932;-61
2023/10/11 12:57:32;;;;;;;;;;;;;;;;;;5052143;28;19921;-61
2023/10/11 12:59:58;;;;;;;;;;;;;;;;;;5034407;28;20324;-61
2023/10/11 13:02:30;;;;;;;;;;;;;;;;;;5052300;28;19924;-64
2023/10/11 13:04:59;;;;;;;;;;;;;;;;;;5052322;28;19921;-61
2023/10/11 13:07:26;;;;;;;;;;;;;;;;;;5053068;28;19921;-60
2023/10/11 13:09:54;;;;;;;;;;;;;;;;;;5053320;28;19920;-61
2023/10/11 13:12:20;;;;;;;;;;;;;;;;;;5053139;28;19925;-61
2023/10/11 13:14:45;;;;;;;;;;;;;;;;;;5053066;28;19927;-60
2023/10/11 13:17:15;;;;;;;;;;;;;;;;;;5052990;28;20359;-61
2023/10/11 13:19:43;;;;;;;;;;;;;;;;;;5052735;28;19931;-60
2023/10/11 13:22:09;;;;;;;;;;;;;;;;;;5052713;28;19925;-61
2023/10/11 13:24:35;;;;;;;;;;;;;;;;;;5052818;28;19921;-61
2023/10/11 13:27:03;;;;;;;;;;;;;;;;;;5068102;28;19974;-61
2023/10/11 13:29:29;;;;;;;;;;;;;;;;;;5052725;28;19921;-61
2023/10/11 13:31:55;;;;;;;;;;;;;;;;;;5052738;28;19932;-61
2023/10/11 13:34:21;;;;;;;;;;;;;;;;;;5052587;28;20310;-61
2023/10/11 13:36:47;;;;;;;;;;;;;;;;;;5052504;28;20015;-61
2023/10/11 13:39:26;;;;;;;;;;;;;;;;;;5052784;28;20032;-61
2023/10/11 13:41:52;;;;;;;;;;;;;;;;;;5052491;28;19964;-62
2023/10/11 13:44:19;;;;;;;;;;;;;;;;;;5052507;28;19925;-62
2023/10/11 13:46:51;;;;;;;;;;;;;;;;;;5034535;28;19927;-61
2023/10/11 13:49:24;;;;;;;;;;;;;;;;;;5034417;28;19921;-61
2023/10/11 13:51:50;;;;;;;;;;;;;;;;;;5034344;28;20444;-62
2023/10/11 13:54:31;;;;;;;;;;;;;;;;;;5052243;28;19928;-61
2023/10/11 13:56:58;;;;;;;;;;;;;;;;;;5052264;28;19967;-61
2023/10/11 13:59:24;;;;;;;;;;;;;;;;;;5052298;28;19924;-61
2023/10/11 14:04:47;;;;;;;;;;;;;;;;;;5067844;28;20354;-60
2023/10/11 14:09:46;;;;;;;;;;;;;;;;;;5052102;28;19925;-61
2023/10/11 14:12:17;;;;;;;;;;;;;;;;;;5052163;28;19925;-61
2023/10/11 14:14:43;;;;;;;;;;;;;;;;;;5051919;28;20370;-60
2023/10/11 14:17:15;;;;;;;;;;;;;;;;;;5051822;28;19921;-61
2023/10/11 14:19:41;;;;;;;;;;;;;;;;;;5033872;28;20321;-61
2023/10/11 14:22:07;;;;;;;;;;;;;;;;;;5051916;28;19931;-60
2023/10/11 14:24:35;;;;;;;;;;;;;;;;;;5051770;28;20552;-60
2023/10/11 14:27:02;;;;;;;;;;;;;;;;;;5047623;28;19928;-60
2023/10/11 14:29:27;;;;;;;;;;;;;;;;;;5031950;28;19921;-61
2023/10/11 14:31:56;;;;;;;;;;;;;;;;;;5032074;28;20016;-61
2023/10/11 14:34:22;;;;;;;;;;;;;;;;;;5031674;28;19925;-61
2023/10/11 14:36:50;;;;;;;;;;;;;;;;;;5031983;28;19932;-61
2023/10/11 14:39:19;;;;;;;;;;;;;;;;;;5031751;28;19929;-61
2023/10/11 14:41:45;;;;;;;;;;;;;;;;;;5031594;28;20390;-61
2023/10/11 14:44:13;;;;;;;;;;;;;;;;;;5046838;28;19921;-61
2023/10/11 14:46:39;;;;;;;;;;;;;;;;;;5031909;28;19925;-61
2023/10/11 14:49:05;;;;;;;;;;;;;;;;;;5031483;28;20252;-61
2023/10/11 14:51:31;;;;;;;;;;;;;;;;;;5031611;28;19927;-61
2023/10/11 14:53:57;;;;;;;;;;;;;;;;;;5049552;28;20055;-61
2023/10/11 14:56:23;;;;;;;;;;;;;;;;;;5051638;28;19921;-61
2023/10/11 14:58:50;;;;;;;;;;;;;;;;;;5050108;28;19964;-61
2023/10/11 15:01:19;;;;;;;;;;;;;;;;;;5051579;28;19921;-61
2023/10/11 15:03:47;;;;;;;;;;;;;;;;;;5051542;28;19931;-62
2023/10/11 15:06:13;;;;;;;;;;;;;;;;;;5051253;28;19925;-62
2023/10/11 15:08:41;;;;;;;;;;;;;;;;;;5051515;28;19964;-62
2023/10/11 15:11:07;;;;;;;;;;;;;;;;;;5051617;28;19924;-62
2023/10/11 15:13:33;;;;;;;;;;;;;;;;;;5066532;28;20396;-59
2023/10/11 15:16:00;;;;;;;;;;;;;;;;;;5051348;28;19921;-61
2023/10/11 15:18:26;;;;;;;;;;;;;;;;;;5034841;28;19924;-61
2023/10/11 15:20:52;;;;;;;;;;;;;;;;;;5055057;28;19927;-61
2023/10/11 15:23:18;;;;;;;;;;;;;;;;;;5055126;28;19925;-61
2023/10/11 15:25:44;;;;;;;;;;;;;;;;;;5055180;28;19974;-61
2023/10/11 15:28:10;;;;;;;;;;;;;;;;;;5054935;28;19921;-61
2023/10/11 15:30:40;;;;;;;;;;;;;;;;;;5054784;28;19921;-61
2023/10/11 15:33:06;;;;;;;;;;;;;;;;;;5054927;28;19928;-59
2023/10/11 15:35:33;;;;;;;;;;;;;;;;;;5054833;28;19921;-60
2023/10/11 15:38:00;;;;;;;;;;;;;;;;;;5054938;28;19964;-61
2023/10/11 15:40:26;;;;;;;;;;;;;;;;;;5054754;28;19921;-60
2023/10/11 15:42:52;;;;;;;;;;;;;;;;;;5054966;28;19928;-61
2023/10/11 15:45:19;;;;;;;;;;;;;;;;;;5054603;28;20298;-60
2023/10/11 15:47:45;;;;;;;;;;;;;;;;;;5054873;28;19924;-61
2023/10/11 15:50:12;;;;;;;;;;;;;;;;;;5054581;28;20046;-62
2023/10/11 15:52:38;;;;;;;;;;;;;;;;;;5074045;28;19925;-61
2023/10/11 15:55:07;;;;;;;;;;;;;;;;;;5054245;28;19929;-61
2023/10/11 15:57:33;;;;;;;;;;;;;;;;;;5053266;28;20441;-61
2023/10/11 15:59:59;;;;;;;;;;;;;;;;;;5052891;28;19964;-61
2023/10/11 16:02:25;;;;;;;;;;;;;;;;;;5054270;28;20008;-61
2023/10/11 16:04:51;;;;;;;;;;;;;;;;;;5053176;28;20058;-61
2023/10/11 16:07:17;;;;;;;;;;;;;;;;;;5054292;28;20362;-61
2023/10/11 16:09:43;;;;;;;;;;;;;;;;;;5054207;28;19927;-61
2023/10/11 16:12:12;;;;;;;;;;;;;;;;;;5054287;28;20010;-61
2023/10/11 16:14:40;;;;;;;;;;;;;;;;;;5052917;28;19970;-61
2023/10/11 16:17:06;;;;;;;;;;;;;;;;;;5053875;28;19921;-61
2023/10/11 16:19:33;;;;;;;;;;;;;;;;;;5069109;28;19935;-60
2023/10/11 16:21:59;;;;;;;;;;;;;;;;;;5069419;28;19921;-60
2023/10/11 16:24:27;;;;;;;;;;;;;;;;;;5053856;28;20612;-60
2023/10/11 16:26:53;;;;;;;;;;;;;;;;;;5069198;28;19928;-61
2023/10/11 16:29:19;;;;;;;;;;;;;;;;;;5053721;28;19921;-61
2023/10/11 16:31:49;;;;;;;;;;;;;;;;;;5052371;28;19925;-61
2023/10/11 16:34:15;;;;;;;;;;;;;;;;;;5069130;28;19928;-61
2023/10/11 16:36:41;;;;;;;;;;;;;;;;;;5069215;28;19921;-61
2023/10/11 16:39:13;;;;;;;;;;;;;;;;;;5053466;28;20485;-61
2023/10/11 16:41:41;;;;;;;;;;;;;;;;;;5053564;28;19924;-61
2023/10/11 16:44:07;;;;;;;;;;;;;;;;;;5053338;28;19928;-61
2023/10/11 16:46:33;;;;;;;;;;;;;;;;;;5068778;28;19920;-61
2023/10/11 16:48:59;;;;;;;;;;;;;;;;;;5068788;28;19932;-61
2023/10/11 16:51:25;;;;;;;;;;;;;;;;;;5068543;28;19928;-61
2023/10/11 16:53:51;;;;;;;;;;;;;;;;;;5083072;28;19925;-61
2023/10/11 16:56:17;;;;;;;;;;;;;;;;;;5051862;28;19943;-61
2023/10/11 16:58:43;;;;;;;;;;;;;;;;;;5053221;28;19928;-61
2023/10/11 17:01:09;;;;;;;;;;;;;;;;;;5053430;28;19921;-61
2023/10/11 17:03:35;;;;;;;;;;;;;;;;;;5053446;28;19921;-61
2023/10/11 17:06:03;;;;;;;;;;;;;;;;;;5053084;28;19952;-61
2023/10/11 17:08:29;;;;;;;;;;;;;;;;;;5051612;28;19924;-61
2023/10/11 17:10:55;;;;;;;;;;;;;;;;;;5053145;28;19931;-62
2023/10/11 17:13:20;;;;;;;;;;;;;;;;;;5053008;28;20466;-61
2023/10/11 17:15:46;;;;;;;;;;;;;;;;;;5053093;28;19968;-62
2023/10/11 17:18:12;;;;;;;;;;;;;;;;;;5038428;28;19931;-62
2023/10/11 17:20:40;;;;;;;;;;;;;;;;;;5052404;28;20008;-62
2023/10/11 17:23:06;;;;;;;;;;;;;;;;;;5052208;28;19975;-62
2023/10/11 17:25:32;;;;;;;;;;;;;;;;;;5067453;28;19928;-60
2023/10/11 17:27:58;;;;;;;;;;;;;;;;;;5050945;28;19925;-60
2023/10/11 17:30:30;;;;;;;;;;;;;;;;;;5067167;28;19927;-60